Time;durP1;ratioP1;P1;durP2;ratioP2;P2;SDS_P1;SDS_P2;PMS_P1;PMS_P2;Temp;Humidity;BMP_temperature;BMP_pressure;BME280_temperature;BME280_humidity;BME280_pressure;Samples;Min_cycle;Max_cycle;Signal;HPM_P1;HPM_P2
2024/01/14 00:05:02;;;;;;;11.30;9.50;;;;;;;-1.17;100.00;98147.94;432752;1258;141001;-68
2024/01/14 00:15:09;;;;;;;11.00;8.30;;;;;;;-1.13;100.00;98134.05;433231;1259;139802;-69
2024/01/14 00:25:17;;;;;;;9.70;7.90;;;;;;;-1.09;100.00;98122.23;436709;1255;141023;-68
2024/01/14 00:35:23;;;;;;;8.90;7.60;;;;;;;-1.05;100.00;98124.31;432648;1257;140093;-68
2024/01/14 00:45:28;;;;;;;7.20;6.50;;;;;;;-1.02;100.00;98118.88;432894;1260;141763;-68
2024/01/14 00:55:34;;;;;;;7.60;6.70;;;;;;;-0.98;100.00;98108.40;433030;1256;140718;-69
2024/01/14 01:05:40;;;;;;;7.20;6.60;;;;;;;-0.94;100.00;98096.40;433153;1255;140667;-68
2024/01/14 01:15:46;;;;;;;7.50;6.30;;;;;;;-0.90;100.00;98068.02;432690;1256;141144;-69
2024/01/14 01:25:52;;;;;;;8.00;7.00;;;;;;;-0.84;100.00;98059.36;432813;1256;140152;-69
2024/01/14 01:35:58;;;;;;;8.50;7.70;;;;;;;-0.79;100.00;98051.61;432926;1260;141175;-69
2024/01/14 01:46:04;;;;;;;7.60;6.90;;;;;;;-0.80;100.00;98038.58;436274;1255;140435;-67
2024/01/14 01:56:11;;;;;;;8.70;7.40;;;;;;;-0.77;100.00;98020.92;433143;1256;140278;-68
2024/01/14 02:06:18;;;;;;;7.50;6.20;;;;;;;-0.71;100.00;98002.80;433336;1255;139962;-68
2024/01/14 02:16:24;;;;;;;10.60;8.60;;;;;;;-0.68;100.00;97991.83;433700;1256;140529;-67
2024/01/14 02:26:30;;;;;;;7.90;7.10;;;;;;;-0.68;100.00;97972.27;434945;1259;448223;-68
2024/01/14 02:36:36;;;;;;;9.20;8.30;;;;;;;-0.67;100.00;97963.10;432458;1260;140574;-68
2024/01/14 02:46:42;;;;;;;8.10;7.20;;;;;;;-0.64;100.00;97952.48;432606;1260;140204;-67
2024/01/14 02:56:48;;;;;;;8.50;7.10;;;;;;;-0.61;100.00;97940.32;432646;1258;139806;-68
2024/01/14 03:06:54;;;;;;;8.20;7.10;;;;;;;-0.64;100.00;97925.48;432537;1257;141920;-68
2024/01/14 03:17:00;;;;;;;7.00;6.10;;;;;;;-0.68;100.00;97915.73;432336;1257;140945;-67
2024/01/14 03:27:06;;;;;;;5.10;4.60;;;;;;;-0.66;100.00;97907.08;432624;1256;139558;-67
2024/01/14 03:37:12;;;;;;;5.70;4.80;;;;;;;-0.63;100.00;97896.95;432484;1260;140357;-68
2024/01/14 03:47:18;;;;;;;4.70;4.30;;;;;;;-0.65;100.00;97898.89;432492;1260;141532;-67
2024/01/14 03:57:24;;;;;;;6.20;5.60;;;;;;;-0.68;100.00;97883.07;432834;1260;141379;-67
2024/01/14 04:07:29;;;;;;;4.30;3.90;;;;;;;-0.72;100.00;97861.42;432814;1259;139822;-68
2024/01/14 04:17:35;;;;;;;5.30;4.60;;;;;;;-0.72;100.00;97851.13;432752;1256;140509;-67
2024/01/14 04:27:41;;;;;;;4.50;4.00;;;;;;;-0.70;100.00;97847.40;433252;1260;140189;-69
2024/01/14 04:37:47;;;;;;;4.70;4.20;;;;;;;-0.66;100.00;97847.77;432900;1255;140189;-68
2024/01/14 04:47:53;;;;;;;5.30;4.60;;;;;;;-0.64;100.00;97845.75;432784;1255;140608;-68
2024/01/14 04:57:59;;;;;;;5.90;5.30;;;;;;;-0.62;100.00;97840.51;433361;1256;140661;-68
2024/01/14 05:08:05;;;;;;;6.20;5.60;;;;;;;-0.59;100.00;97838.29;435021;1258;139924;-69
2024/01/14 05:18:11;;;;;;;6.20;5.60;;;;;;;-0.55;100.00;97831.95;433519;1255;140723;-67
2024/01/14 05:28:17;;;;;;;6.00;5.40;;;;;;;-0.51;100.00;97829.38;435694;1255;139996;-68
2024/01/14 05:38:23;;;;;;;7.90;7.00;;;;;;;-0.49;100.00;97824.30;432924;1256;141754;-68
2024/01/14 05:48:29;;;;;;;7.20;6.10;;;;;;;-0.49;100.00;97813.41;432764;1256;141578;-69
2024/01/14 05:58:35;;;;;;;6.90;6.20;;;;;;;-0.46;100.00;97803.02;432983;1256;140780;-68
2024/01/14 06:08:41;;;;;;;6.80;6.10;;;;;;;-0.50;100.00;97802.48;433148;1259;140728;-68
2024/01/14 06:18:47;;;;;;;5.80;4.80;;;;;;;-0.52;100.00;97803.80;434151;1259;140814;-68
2024/01/14 06:28:53;;;;;;;6.70;6.00;;;;;;;-0.53;100.00;97817.94;433483;1259;140131;-68
2024/01/14 06:38:59;;;;;;;5.80;5.30;;;;;;;-0.53;100.00;97826.52;433216;1256;140300;-69
2024/01/14 06:49:04;;;;;;;7.60;6.90;;;;;;;-0.52;100.00;97839.73;434646;1255;140784;-68
2024/01/14 06:59:14;;;;;;;7.90;7.00;;;;;;;-0.53;100.00;97843.52;432824;1259;142049;-67
2024/01/14 07:09:20;;;;;;;8.20;6.80;;;;;;;-0.53;100.00;97844.07;433327;1256;142319;-66
2024/01/14 07:19:26;;;;;;;6.60;5.70;;;;;;;-0.53;100.00;97851.77;435924;1256;139753;-67
2024/01/14 07:29:32;;;;;;;7.40;6.30;;;;;;;-0.46;100.00;97855.08;433183;1257;141227;-67
2024/01/14 07:39:38;;;;;;;6.20;4.90;;;;;;;-0.42;100.00;97856.12;433131;1258;140613;-67
2024/01/14 07:49:48;;;;;;;5.90;5.30;;;;;;;-0.35;100.00;97859.05;433025;1260;139732;-68
2024/01/14 07:59:54;;;;;;;5.50;4.50;;;;;;;-0.32;100.00;97866.61;433768;1260;139995;-67
2024/01/14 08:10:00;;;;;;;7.40;5.70;;;;;;;-0.25;100.00;97868.39;432973;1260;141202;-67
2024/01/14 08:20:10;;;;;;;7.80;5.90;;;;;;;-0.18;100.00;97869.55;433133;1256;139851;-68
2024/01/14 08:30:17;;;;;;;4.90;4.40;;;;;;;-0.05;100.00;97871.03;434081;1256;141591;-69
2024/01/14 08:40:21;;;;;;;;;;;;;;;0.06;100.00;97871.36;433466;1257;140390;-68
2024/01/14 08:50:27;;;;;;;6.50;5.50;;;;;;;0.15;100.00;97871.27;433232;1259;127461;-68
2024/01/14 09:00:33;;;;;;;6.20;5.70;;;;;;;0.32;100.00;97877.00;432721;1260;140080;-67
2024/01/14 09:10:39;;;;;;;7.40;5.40;;;;;;;0.70;100.00;97890.28;432896;1260;140897;-67
2024/01/14 09:20:45;;;;;;;6.30;5.50;;;;;;;0.93;100.00;97896.66;432887;1256;140515;-67
2024/01/14 09:30:51;;;;;;;6.00;5.50;;;;;;;1.29;100.00;97889.10;432782;1256;141172;-67
2024/01/14 09:41:03;;;;;;;6.00;5.50;;;;;;;1.79;100.00;97893.52;432819;1259;140371;-67
2024/01/14 09:51:11;;;;;;;5.30;4.80;;;;;;;1.89;100.00;97888.31;432877;1256;140785;-68
2024/01/14 10:01:21;;;;;;;4.80;4.00;;;;;;;1.61;100.00;97891.20;432647;1256;141071;-65
2024/01/14 10:11:27;;;;;;;6.40;4.70;;;;;;;1.54;100.00;97888.81;437082;1259;140206;-67
2024/01/14 10:21:33;;;;;;;4.50;4.10;;;;;;;1.85;100.00;97881.79;432890;1259;141031;-67
2024/01/14 10:31:45;;;;;;;5.50;4.00;;;;;;;1.97;100.00;97877.86;432752;1259;140154;-67
2024/01/14 10:41:51;;;;;;;6.70;4.40;;;;;;;1.73;100.00;97880.54;432705;1256;140975;-67
2024/01/14 10:52:08;;;;;;;5.30;3.50;;;;;;;1.42;100.00;97883.93;432999;1256;141783;-68
2024/01/14 11:02:19;;;;;;;6.80;3.70;;;;;;;1.17;100.00;97882.33;436794;1259;140863;-65
2024/01/14 11:12:31;;;;;;;4.80;4.00;;;;;;;0.92;100.00;97883.10;433805;1256;140676;-68
2024/01/14 11:22:45;;;;;;;5.80;4.70;;;;;;;0.76;100.00;97866.35;433980;1256;140575;-68
2024/01/14 11:33:31;;;;;;;5.60;5.10;;;;;;;0.65;100.00;97866.79;433148;1259;140301;-66
2024/01/14 11:43:37;;;;;;;6.20;5.30;;;;;;;0.67;100.00;97864.42;434649;1259;141572;-68
2024/01/14 11:53:44;;;;;;;8.90;5.00;;;;;;;0.68;100.00;97864.68;433151;1261;141063;-71
2024/01/14 12:04:02;;;;;;;4.60;4.00;;;;;;;0.65;100.00;97858.11;436136;1260;140321;-70
2024/01/14 12:14:08;;;;;;;5.80;4.90;;;;;;;0.67;100.00;97855.63;440281;1255;140317;-70
2024/01/14 12:24:14;;;;;;;5.90;5.00;;;;;;;0.62;100.00;97857.23;433114;1256;140835;-69
2024/01/14 12:34:20;;;;;;;4.60;4.20;;;;;;;0.53;100.00;97857.73;433159;1260;140479;-71
2024/01/14 12:44:27;;;;;;;5.90;5.30;;;;;;;0.43;100.00;97853.72;433855;1256;139977;-71
2024/01/14 12:54:33;;;;;;;6.50;5.20;;;;;;;0.35;100.00;97852.23;433372;1256;140387;-64
2024/01/14 13:04:39;;;;;;;5.70;5.00;;;;;;;0.25;100.00;97850.79;434085;1259;140238;-63
2024/01/14 13:14:46;;;;;;;5.60;4.90;;;;;;;0.24;100.00;97850.17;433034;1256;140391;-64
2024/01/14 13:24:52;;;;;;;11.10;4.80;;;;;;;0.23;100.00;97844.39;432778;1260;140816;-63
2024/01/14 13:34:58;;;;;;;4.90;3.60;;;;;;;0.30;100.00;97830.79;433422;1260;141041;-64
2024/01/14 13:45:05;;;;;;;4.80;4.10;;;;;;;0.39;100.00;97832.06;433297;1260;139829;-62
2024/01/14 13:55:10;;;;;;;5.40;4.90;;;;;;;0.43;100.00;97838.06;434342;1260;140403;-62
2024/01/14 14:05:17;;;;;;;3.50;3.10;;;;;;;0.34;100.00;97844.86;433039;1261;140719;-62
2024/01/14 14:15:23;;;;;;;3.90;3.10;;;;;;;0.31;100.00;97837.13;435829;1260;139693;-63
2024/01/14 14:25:29;;;;;;;4.00;3.20;;;;;;;0.27;100.00;97839.87;433576;1260;244035;-62
2024/01/14 14:35:37;;;;;;;5.00;3.00;;;;;;;0.24;100.00;97836.38;433228;1259;140417;-62
2024/01/14 14:45:43;;;;;;;3.50;3.20;;;;;;;0.16;100.00;97833.39;432877;1260;140911;-64
2024/01/14 14:55:49;;;;;;;4.80;3.20;;;;;;;0.01;100.00;97828.95;433578;1260;139989;-63
2024/01/14 15:05:55;;;;;;;4.20;3.30;;;;;;;-0.17;100.00;97832.21;433312;1260;139955;-62
2024/01/14 15:16:01;;;;;;;6.10;4.90;;;;;;;-0.28;100.00;97823.98;432880;1260;141495;-63
2024/01/14 15:26:09;;;;;;;5.40;4.90;;;;;;;-0.39;100.00;97824.16;433180;1260;140294;-64
2024/01/14 15:36:15;;;;;;;11.60;8.00;;;;;;;-0.45;100.00;97822.88;432980;1260;140128;-63
2024/01/14 15:46:22;;;;;;;7.50;5.70;;;;;;;-0.48;100.00;97810.12;432934;1260;140902;-63
2024/01/14 15:56:27;;;;;;;13.50;6.80;;;;;;;-0.54;100.00;97807.69;433223;1259;140813;-63
2024/01/14 16:06:33;;;;;;;7.40;4.80;;;;;;;-0.59;100.00;97802.37;433382;1261;140594;-64
2024/01/14 16:16:40;;;;;;;6.40;4.50;;;;;;;-0.64;100.00;97790.77;433709;1258;141673;-63
2024/01/14 16:26:46;;;;;;;6.70;4.40;;;;;;;-0.73;100.00;97795.14;433416;1260;139630;-63
2024/01/14 16:36:52;;;;;;;7.20;5.50;;;;;;;-0.75;100.00;97804.33;434495;1257;140203;-64
2024/01/14 16:46:58;;;;;;;7.30;5.10;;;;;;;-0.74;100.00;97801.05;432751;1258;142070;-63
2024/01/14 16:57:04;;;;;;;9.80;5.30;;;;;;;-0.74;100.00;97797.61;433255;1260;140030;-65
2024/01/14 17:07:11;;;;;;;6.30;5.60;;;;;;;-0.72;100.00;97793.17;433102;1260;139592;-66
2024/01/14 17:17:19;;;;;;;7.80;6.40;;;;;;;-0.72;100.00;97776.89;432891;1260;140613;-65
2024/01/14 17:27:25;;;;;;;7.60;5.20;;;;;;;-0.76;100.00;97769.32;433462;1259;140764;-65
2024/01/14 17:37:31;;;;;;;14.60;7.30;;;;;;;-0.80;100.00;97760.92;433648;1257;139545;-65
2024/01/14 17:47:37;;;;;;;7.70;5.60;;;;;;;-0.82;100.00;97744.33;433184;1261;140968;-66
2024/01/14 17:57:43;;;;;;;11.10;8.30;;;;;;;-0.81;100.00;97730.04;433970;1257;140622;-65
2024/01/14 18:07:50;;;;;;;8.00;5.40;;;;;;;-0.81;100.00;97721.96;433783;1260;142100;-63
2024/01/14 18:17:58;;;;;;;9.00;7.30;;;;;;;-0.81;100.00;97719.92;434560;1260;141106;-65
2024/01/14 18:28:05;;;;;;;8.20;7.30;;;;;;;-0.85;100.00;97715.80;433179;1260;141099;-66
2024/01/14 18:38:11;;;;;;;9.20;6.10;;;;;;;-0.85;100.00;97703.61;436118;1257;139695;-66
2024/01/14 18:48:17;;;;;;;10.00;6.40;;;;;;;-0.83;100.00;97695.95;433003;1257;140233;-65
2024/01/14 18:58:23;;;;;;;7.00;5.40;;;;;;;-0.81;100.00;97691.91;432857;1259;139886;-66
2024/01/14 19:08:29;;;;;;;8.90;6.30;;;;;;;-0.78;100.00;97681.64;433001;1259;141012;-65
2024/01/14 19:18:35;;;;;;;7.50;6.10;;;;;;;-0.77;100.00;97668.51;432932;1257;140555;-65
2024/01/14 19:28:40;;;;;;;;;;;;;;;-0.76;100.00;97663.98;435867;1259;140322;-64
2024/01/14 19:38:45;;;;;;;9.30;6.20;;;;;;;-0.78;100.00;97661.19;433306;1257;125988;-65
2024/01/14 19:48:51;;;;;;;11.80;6.50;;;;;;;-0.78;100.00;97652.27;432664;1258;139984;-69
2024/01/14 19:58:57;;;;;;;11.70;6.50;;;;;;;-0.80;100.00;97645.96;432667;1260;140357;-67
2024/01/14 20:09:03;;;;;;;9.10;7.00;;;;;;;-0.80;100.00;97638.09;433094;1260;141472;-64
2024/01/14 20:19:09;;;;;;;9.20;5.80;;;;;;;-0.81;100.00;97629.34;432847;1257;140715;-65
2024/01/14 20:29:15;;;;;;;10.50;7.30;;;;;;;-0.83;100.00;97623.61;432597;1257;140954;-64
2024/01/14 20:39:21;;;;;;;13.10;7.60;;;;;;;-0.88;100.00;97614.38;432989;1256;139855;-63
2024/01/14 20:49:27;;;;;;;14.00;8.40;;;;;;;-0.91;100.00;97595.33;433061;1260;139869;-64
2024/01/14 20:59:32;;;;;;;;;;;;;;;-0.91;100.00;97577.80;437506;1255;142541;-63
2024/01/14 21:09:41;;;;;;;10.70;8.70;;;;;;;-0.89;100.00;97567.75;432850;1256;127351;-64
2024/01/14 21:19:47;;;;;;;16.70;10.20;;;;;;;-0.87;100.00;97565.08;435737;1255;139745;-64
2024/01/14 21:29:53;;;;;;;13.30;9.10;;;;;;;-0.86;100.00;97544.90;432943;1255;140278;-63
2024/01/14 21:39:59;;;;;;;12.90;10.80;;;;;;;-0.84;100.00;97538.10;432640;1256;141505;-63
2024/01/14 21:50:04;;;;;;;;;;;;;;;-0.81;100.00;97530.05;432957;1256;139984;-64
2024/01/14 22:00:12;;;;;;;11.20;10.00;;;;;;;-0.78;100.00;97522.02;438386;1255;126400;-63
2024/01/14 22:10:18;;;;;;;14.10;10.70;;;;;;;-0.75;100.00;97518.59;432995;1255;142574;-65
2024/01/14 22:20:24;;;;;;;10.30;8.20;;;;;;;-0.75;100.00;97501.58;433002;1256;140188;-67
2024/01/14 22:30:29;;;;;;;9.40;7.70;;;;;;;-0.76;100.00;97490.27;432830;1257;139913;-64
2024/01/14 22:40:35;;;;;;;13.80;10.80;;;;;;;-0.79;100.00;97482.55;432776;1256;140104;-63
2024/01/14 22:50:41;;;;;;;13.70;10.40;;;;;;;-0.81;100.00;97467.53;432750;1260;140856;-63
2024/01/14 23:00:48;;;;;;;13.00;11.50;;;;;;;-0.86;100.00;97458.31;432745;1258;140882;-64
2024/01/14 23:10:54;;;;;;;14.20;11.30;;;;;;;-0.91;100.00;97448.12;432736;1260;140554;-64
2024/01/14 23:21:05;;;;;;;10.30;7.90;;;;;;;-0.97;100.00;97424.52;433318;1256;140006;-64
2024/01/14 23:31:11;;;;;;;14.00;10.80;;;;;;;-1.03;100.00;97409.20;432959;1257;140092;-63
2024/01/14 23:41:17;;;;;;;14.20;10.70;;;;;;;-1.06;100.00;97401.95;432834;1256;141009;-63
2024/01/14 23:51:23;;;;;;;16.10;12.00;;;;;;;-1.10;100.00;97376.46;433133;1257;140558;-64
